Time;durP1;ratioP1;P1;durP2;ratioP2;P2;SDS_P1;SDS_P2;PMS_P1;PMS_P2;Temp;Humidity;BMP_temperature;BMP_pressure;BME280_temperature;BME280_humidity;BME280_pressure;Samples;Min_cycle;Max_cycle;Signal;HPM_P1;HPM_P2
2023/09/27 00:02:22;;;;;;;10.40;6.13;;;10.70;99.90;;;;;;5046985;28;20087;-67
2023/09/27 00:04:48;;;;;;;12.35;7.60;;;10.70;99.90;;;;;;5047719;28;20540;-67
2023/09/27 00:07:13;;;;;;;12.95;6.70;;;10.60;99.90;;;;;;5046536;28;20457;-67
2023/09/27 00:09:39;;;;;;;13.13;7.13;;;10.60;99.90;;;;;;5047669;28;20059;-66
2023/09/27 00:12:05;;;;;;;12.80;6.55;;;10.60;99.90;;;;;;5049329;28;20044;-67
2023/09/27 00:14:32;;;;;;;14.45;7.43;;;10.60;99.90;;;;;;5050503;28;20039;-67
2023/09/27 00:16:58;;;;;;;15.63;7.55;;;10.60;99.90;;;;;;5051192;28;20065;-67
2023/09/27 00:19:25;;;;;;;13.32;7.80;;;10.70;99.90;;;;;;5050576;28;20060;-67
2023/09/27 00:21:51;;;;;;;11.15;6.90;;;10.70;99.90;;;;;;5051127;28;20036;-67
2023/09/27 00:24:17;;;;;;;12.95;7.32;;;10.70;99.90;;;;;;5050352;28;20031;-67
2023/09/27 00:26:42;;;;;;;13.20;7.50;;;10.60;99.90;;;;;;5051355;28;20071;-67
2023/09/27 00:29:08;;;;;;;13.70;7.60;;;10.60;99.90;;;;;;5051227;28;20036;-67
2023/09/27 00:31:34;;;;;;;11.73;7.35;;;10.50;99.90;;;;;;5050451;28;20025;-67
2023/09/27 00:33:59;;;;;;;15.48;7.85;;;10.60;99.90;;;;;;5050666;28;20033;-67
2023/09/27 00:36:25;;;;;;;14.98;8.18;;;10.60;99.90;;;;;;5049998;28;20485;-66
2023/09/27 00:38:50;;;;;;;15.00;8.10;;;10.60;99.90;;;;;;5050882;28;20039;-67
2023/09/27 00:41:16;;;;;;;12.63;8.07;;;10.60;99.90;;;;;;5050188;28;20159;-67
2023/09/27 00:43:42;;;;;;;15.75;8.45;;;10.60;99.90;;;;;;5050906;28;20092;-67
2023/09/27 00:46:08;;;;;;;11.38;7.53;;;10.60;99.90;;;;;;5049973;28;20441;-67
2023/09/27 00:48:36;;;;;;;18.48;8.00;;;10.60;99.90;;;;;;5050047;28;20029;-67
2023/09/27 00:51:03;;;;;;;16.10;7.95;;;10.50;99.90;;;;;;5050596;28;20499;-67
2023/09/27 00:53:32;;;;;;;16.48;8.07;;;10.40;99.90;;;;;;5049607;28;20110;-67
2023/09/27 00:55:58;;;;;;;12.35;7.28;;;10.40;99.90;;;;;;5050703;28;20091;-67
2023/09/27 00:58:24;;;;;;;15.10;8.00;;;10.40;99.90;;;;;;5049529;28;20041;-67
2023/09/27 01:00:50;;;;;;;14.30;8.57;;;10.40;99.90;;;;;;5050274;28;20033;-67
2023/09/27 01:03:16;;;;;;;14.23;7.90;;;10.40;99.90;;;;;;5049756;28;20029;-67
2023/09/27 01:05:43;;;;;;;13.77;8.40;;;10.40;99.90;;;;;;5050168;28;20033;-67
2023/09/27 01:08:09;;;;;;;13.80;7.72;;;10.30;99.90;;;;;;5049569;28;20040;-67
2023/09/27 01:10:36;;;;;;;14.25;7.38;;;10.20;99.90;;;;;;5049700;28;20025;-67
2023/09/27 01:13:02;;;;;;;15.75;7.75;;;10.20;99.90;;;;;;5049880;28;20037;-67
2023/09/27 01:15:28;;;;;;;14.27;8.00;;;10.10;99.90;;;;;;5049444;28;20025;-67
2023/09/27 01:18:00;;;;;;;15.00;8.35;;;10.00;99.90;;;;;;5050307;28;20025;-67
2023/09/27 01:20:28;;;;;;;13.30;8.13;;;10.00;99.90;;;;;;5048976;28;20037;-67
2023/09/27 01:23:03;;;;;;;15.65;8.43;;;10.00;99.90;;;;;;5049348;28;20039;-67
2023/09/27 01:25:31;;;;;;;30.13;8.25;;;10.00;99.90;;;;;;5049416;28;20029;-67
2023/09/27 01:28:10;;;;;;;16.08;8.07;;;10.00;99.90;;;;;;5050086;28;20044;-67
2023/09/27 01:30:37;;;;;;;14.63;7.50;;;10.00;99.90;;;;;;5048445;28;20112;-67
2023/09/27 01:33:08;;;;;;;14.77;8.27;;;10.00;99.90;;;;;;5049640;28;20474;-67
2023/09/27 01:35:34;;;;;;;;;;;9.90;99.90;;;;;;5049454;28;20581;-67
2023/09/27 01:38:01;;;;;;;13.25;7.18;;;9.80;99.90;;;;;;5049291;28;19927;-67
2023/09/27 01:40:30;;;;;;;14.07;7.35;;;9.80;99.90;;;;;;5048112;28;20090;-67
2023/09/27 01:43:00;;;;;;;15.27;8.30;;;9.70;99.90;;;;;;5049333;28;20028;-67
2023/09/27 01:45:26;;;;;;;17.50;8.10;;;9.80;99.90;;;;;;5048739;28;20411;-67
2023/09/27 01:47:52;;;;;;;13.45;7.97;;;9.80;99.90;;;;;;5049417;28;20044;-66
2023/09/27 01:50:23;;;;;;;15.60;7.75;;;9.90;99.90;;;;;;5048593;28;20033;-67
2023/09/27 01:52:49;;;;;;;18.00;8.18;;;9.90;99.90;;;;;;5048648;28;20041;-67
2023/09/27 01:55:15;;;;;;;17.88;8.57;;;9.80;99.90;;;;;;5049102;28;20067;-67
2023/09/27 01:57:41;;;;;;;13.70;7.90;;;9.80;99.90;;;;;;5048849;28;20060;-67
2023/09/27 02:00:11;;;;;;;12.98;8.15;;;9.80;99.90;;;;;;5049035;28;20021;-67
2023/09/27 02:02:37;;;;;;;15.30;7.88;;;9.80;99.90;;;;;;5048286;28;20036;-67
2023/09/27 02:05:03;;;;;;;14.25;7.38;;;9.70;99.90;;;;;;5048788;28;20051;-67
2023/09/27 02:07:29;;;;;;;13.75;7.63;;;9.70;99.90;;;;;;5048017;28;20488;-66
2023/09/27 02:09:54;;;;;;;12.73;6.65;;;9.60;99.90;;;;;;5055109;28;20021;-67
2023/09/27 02:12:20;;;;;;;12.02;6.80;;;9.50;99.90;;;;;;5053694;28;20120;-67
2023/09/27 02:14:46;;;;;;;14.73;7.57;;;9.50;99.90;;;;;;5049017;28;20037;-67
2023/09/27 02:17:11;;;;;;;14.05;7.60;;;9.40;99.90;;;;;;5049095;28;20388;-67
2023/09/27 02:19:37;;;;;;;13.30;7.25;;;9.40;99.90;;;;;;5047513;28;20081;-67
2023/09/27 02:22:02;;;;;;;14.48;8.13;;;9.40;99.90;;;;;;5049111;28;20029;-67
2023/09/27 02:24:28;;;;;;;16.13;8.50;;;9.30;99.90;;;;;;5047971;28;20037;-67
2023/09/27 02:26:54;;;;;;;17.02;8.15;;;9.30;99.90;;;;;;5048347;28;20028;-67
2023/09/27 02:29:21;;;;;;;13.85;7.85;;;9.30;99.90;;;;;;5046509;28;20032;-67
2023/09/27 02:31:48;;;;;;;14.00;7.95;;;9.40;99.90;;;;;;5048554;28;20040;-67
2023/09/27 02:34:13;;;;;;;14.80;8.25;;;9.40;99.90;;;;;;5047876;28;20056;-67
2023/09/27 02:36:39;;;;;;;16.10;8.07;;;9.40;99.90;;;;;;5047605;28;20585;-67
2023/09/27 02:39:05;;;;;;;18.52;9.32;;;9.50;99.90;;;;;;5048136;28;20029;-67
2023/09/27 02:41:31;;;;;;;15.18;8.15;;;9.50;99.90;;;;;;5047393;28;20391;-67
2023/09/27 02:43:56;;;;;;;16.15;8.38;;;9.50;99.90;;;;;;5048370;28;20037;-67
2023/09/27 02:46:22;;;;;;;14.07;8.07;;;9.40;99.90;;;;;;5046100;28;20045;-67
2023/09/27 02:48:48;;;;;;;15.48;8.88;;;9.40;99.90;;;;;;5048508;28;20040;-67
2023/09/27 02:51:16;;;;;;;15.23;8.27;;;9.40;99.90;;;;;;5047784;28;20029;-67
2023/09/27 02:53:42;;;;;;;16.63;8.35;;;9.40;99.90;;;;;;5047438;28;20033;-67
2023/09/27 02:56:11;;;;;;;13.98;7.68;;;9.30;99.90;;;;;;5048187;28;20095;-67
2023/09/27 02:58:39;;;;;;;12.27;6.97;;;9.20;99.90;;;;;;5047032;28;20020;-67
2023/09/27 03:01:05;;;;;;;13.63;7.00;;;9.20;99.90;;;;;;5048077;28;20027;-67
2023/09/27 03:03:31;;;;;;;12.00;6.90;;;9.20;99.90;;;;;;5047662;28;20124;-67
2023/09/27 03:06:00;;;;;;;12.77;6.75;;;9.20;99.90;;;;;;5048171;28;20028;-67
2023/09/27 03:08:25;;;;;;;13.52;7.32;;;9.10;99.90;;;;;;5047314;28;20495;-67
2023/09/27 03:10:51;;;;;;;11.45;7.00;;;9.10;99.90;;;;;;5048033;28;20028;-67
2023/09/27 03:13:18;;;;;;;14.13;7.47;;;9.10;99.90;;;;;;5047909;28;20037;-66
2023/09/27 03:15:44;;;;;;;14.32;7.43;;;9.00;99.90;;;;;;5047517;28;20074;-67
2023/09/27 03:18:09;;;;;;;13.18;7.03;;;9.00;99.90;;;;;;5048151;28;20025;-66
2023/09/27 03:20:36;;;;;;;13.65;6.30;;;8.90;99.90;;;;;;5047057;28;20112;-67
2023/09/27 03:23:02;;;;;;;13.85;7.72;;;8.90;99.90;;;;;;5048161;28;20263;-66
2023/09/27 03:25:28;;;;;;;12.02;7.10;;;8.90;99.90;;;;;;5047419;28;20033;-66
2023/09/27 03:27:54;;;;;;;15.10;7.05;;;8.90;99.90;;;;;;5048101;28;20025;-67
2023/09/27 03:30:20;;;;;;;14.23;6.75;;;8.90;99.90;;;;;;5047759;28;20029;-67
2023/09/27 03:32:46;;;;;;;13.55;6.68;;;8.80;99.90;;;;;;5047580;28;20111;-67
2023/09/27 03:35:12;;;;;;;14.60;7.35;;;8.80;99.90;;;;;;5048306;28;20672;-66
2023/09/27 03:37:39;;;;;;;19.08;8.15;;;8.80;99.90;;;;;;5046523;28;20053;-67
2023/09/27 03:40:15;;;;;;;12.65;7.18;;;8.80;99.90;;;;;;5047554;28;20047;-67
2023/09/27 03:42:44;;;;;;;13.55;7.28;;;8.80;99.90;;;;;;5047588;28;20881;-67
2023/09/27 03:45:10;;;;;;;13.80;7.10;;;8.80;99.90;;;;;;5048434;28;20024;-68
2023/09/27 03:47:36;;;;;;;13.38;6.70;;;8.80;99.90;;;;;;5050283;28;20120;-68
2023/09/27 03:50:02;;;;;;;11.23;6.82;;;8.80;99.90;;;;;;5051608;28;20029;-67
2023/09/27 03:52:27;;;;;;;12.45;7.03;;;8.80;99.90;;;;;;5050933;28;20025;-67
2023/09/27 03:54:53;;;;;;;12.70;7.45;;;8.80;99.90;;;;;;5051639;28;20701;-67
2023/09/27 03:57:18;;;;;;;12.27;6.88;;;8.80;99.90;;;;;;5051583;28;20087;-67
2023/09/27 03:59:44;;;;;;;15.88;7.55;;;8.80;99.90;;;;;;5050304;28;20108;-67
2023/09/27 04:02:09;;;;;;;18.10;7.30;;;8.80;99.90;;;;;;5051639;28;20037;-67
2023/09/27 04:04:35;;;;;;;13.23;7.07;;;8.80;99.90;;;;;;5050422;28;20032;-67
2023/09/27 04:07:01;;;;;;;13.25;6.95;;;8.50;99.90;;;;;;5051750;28;20155;-67
2023/09/27 04:09:27;;;;;;;13.02;7.07;;;8.50;99.90;;;;;;5043384;28;20037;-67
2023/09/27 04:11:52;;;;;;;14.43;7.70;;;8.50;99.90;;;;;;5051085;28;20044;-66
2023/09/27 04:14:18;;;;;;;11.85;7.18;;;8.30;99.90;;;;;;5051397;28;20468;-67
2023/09/27 04:16:44;;;;;;;15.27;7.10;;;8.30;99.90;;;;;;5050364;28;20584;-67
2023/09/27 04:19:09;;;;;;;14.50;8.30;;;8.30;99.90;;;;;;5050979;28;20036;-67
2023/09/27 04:21:36;;;;;;;15.10;8.77;;;8.30;99.90;;;;;;5049610;28;20162;-66
2023/09/27 04:24:04;;;;;;;15.23;8.40;;;8.40;99.90;;;;;;5050656;28;20651;-67
2023/09/27 04:26:30;;;;;;;16.85;8.77;;;8.40;99.90;;;;;;5050181;28;20163;-66
2023/09/27 04:28:56;;;;;;;15.75;8.77;;;8.40;99.90;;;;;;5051119;28;20074;-66
2023/09/27 04:31:22;;;;;;;18.05;7.53;;;8.40;99.90;;;;;;5048423;28;20024;-66
2023/09/27 04:33:48;;;;;;;11.90;7.45;;;8.30;99.90;;;;;;5045587;28;20575;-66
2023/09/27 04:36:17;;;;;;;14.88;7.40;;;8.30;99.90;;;;;;5048338;28;20029;-66
2023/09/27 04:38:47;;;;;;;13.23;7.72;;;8.30;99.90;;;;;;5046887;28;20330;-66
2023/09/27 04:41:17;;;;;;;15.70;7.72;;;8.20;99.90;;;;;;5049338;28;20624;-67
2023/09/27 04:43:44;;;;;;;;;;;8.30;99.90;;;;;;5048019;28;20032;-66
2023/09/27 04:46:17;;;;;;;15.27;8.27;;;8.30;99.90;;;;;;5049468;28;19917;-67
2023/09/27 04:48:43;;;;;;;19.08;9.50;;;8.30;99.90;;;;;;5049454;28;20064;-66
2023/09/27 04:51:09;;;;;;;16.00;8.68;;;8.30;99.90;;;;;;5036489;28;20030;-67
2023/09/27 04:53:38;;;;;;;15.93;8.20;;;8.30;99.90;;;;;;5048445;28;20036;-66
2023/09/27 04:56:06;;;;;;;15.35;7.88;;;8.30;99.90;;;;;;5046406;28;20029;-66
2023/09/27 04:58:31;;;;;;;13.48;7.43;;;8.30;99.90;;;;;;5036889;28;20025;-67
2023/09/27 05:00:57;;;;;;;12.45;7.22;;;8.20;99.90;;;;;;5043730;28;20055;-67
2023/09/27 05:03:23;;;;;;;13.35;7.32;;;8.20;99.90;;;;;;5048931;28;20102;-66
2023/09/27 05:05:48;;;;;;;13.57;7.97;;;8.20;99.90;;;;;;5048945;28;20775;-67
2023/09/27 05:08:14;;;;;;;19.05;7.72;;;8.20;99.90;;;;;;5047087;28;20029;-67
2023/09/27 05:10:39;;;;;;;13.55;7.50;;;8.20;99.90;;;;;;5049543;28;20044;-67
2023/09/27 05:13:05;;;;;;;15.38;7.60;;;8.20;99.90;;;;;;5048088;28;20511;-66
2023/09/27 05:15:33;;;;;;;13.15;7.43;;;8.20;99.90;;;;;;5049465;28;20067;-67
2023/09/27 05:17:59;;;;;;;17.05;9.10;;;8.20;99.90;;;;;;5045737;28;20037;-67
2023/09/27 05:20:25;;;;;;;18.92;9.65;;;8.20;99.90;;;;;;5050137;28;20060;-67
2023/09/27 05:22:53;;;;;;;14.65;7.70;;;8.20;99.90;;;;;;5047073;28;20072;-67
2023/09/27 05:25:18;;;;;;;16.92;7.95;;;8.10;99.90;;;;;;5049323;28;20028;-67
2023/09/27 05:27:44;;;;;;;12.50;7.30;;;8.00;99.90;;;;;;5033838;28;20432;-67
2023/09/27 05:30:11;;;;;;;10.57;6.63;;;8.00;99.90;;;;;;5029932;28;20029;-67
2023/09/27 05:32:37;;;;;;;12.88;7.43;;;8.00;99.90;;;;;;5034960;28;20143;-67
2023/09/27 05:35:04;;;;;;;14.73;6.85;;;7.90;99.90;;;;;;5049656;28;20115;-67
2023/09/27 05:37:31;;;;;;;14.00;7.15;;;8.00;99.90;;;;;;5043379;28;20033;-67
2023/09/27 05:39:57;;;;;;;15.57;7.57;;;8.00;99.90;;;;;;5048415;28;20713;-67
2023/09/27 05:42:22;;;;;;;15.90;7.20;;;8.10;99.90;;;;;;5049100;28;20037;-67
2023/09/27 05:44:48;;;;;;;16.60;8.70;;;8.20;99.90;;;;;;5048715;28;20033;-67
2023/09/27 05:47:14;;;;;;;15.23;8.15;;;8.30;99.90;;;;;;5046345;28;20036;-67
2023/09/27 05:49:41;;;;;;;14.73;7.68;;;8.30;99.90;;;;;;5045236;28;20032;-67
2023/09/27 05:52:11;;;;;;;13.60;7.60;;;8.40;99.90;;;;;;5045088;28;20025;-67
2023/09/27 05:54:38;;;;;;;13.07;7.28;;;8.40;99.90;;;;;;5036875;28;20049;-67
2023/09/27 05:57:08;;;;;;;20.73;7.10;;;8.20;99.90;;;;;;5048421;28;20039;-67
2023/09/27 05:59:34;;;;;;;13.18;7.40;;;8.20;99.90;;;;;;5028768;28;20037;-67
2023/09/27 06:01:59;;;;;;;12.88;7.35;;;8.30;99.90;;;;;;5045718;28;20452;-67
2023/09/27 06:04:25;;;;;;;14.02;7.78;;;8.40;99.90;;;;;;5048942;28;20108;-67
2023/09/27 06:06:51;;;;;;;14.98;7.13;;;8.40;99.90;;;;;;5046304;28;20033;-68
2023/09/27 06:09:17;;;;;;;14.50;7.72;;;8.50;99.90;;;;;;5047125;28;20029;-67
2023/09/27 06:11:43;;;;;;;14.38;7.88;;;8.60;99.90;;;;;;5047041;28;20111;-67
2023/09/27 06:14:11;;;;;;;16.05;8.27;;;8.70;99.90;;;;;;5048286;28;20123;-67
2023/09/27 06:16:39;;;;;;;14.10;7.68;;;8.80;99.90;;;;;;5041202;28;20043;-67
2023/09/27 06:19:05;;;;;;;12.57;6.97;;;8.80;99.90;;;;;;5042572;28;20652;-67
2023/09/27 06:21:32;;;;;;;12.73;7.30;;;8.90;99.90;;;;;;5046638;28;20028;-67
2023/09/27 06:23:58;;;;;;;13.75;7.30;;;8.90;99.90;;;;;;5048327;28;20037;-67
2023/09/27 06:26:24;;;;;;;12.85;6.85;;;9.00;99.90;;;;;;5047713;28;20505;-67
2023/09/27 06:28:50;;;;;;;13.57;6.68;;;9.10;99.90;;;;;;5047659;28;20095;-66
2023/09/27 06:31:16;;;;;;;12.70;7.63;;;9.20;99.90;;;;;;5047901;28;20021;-67
2023/09/27 06:33:45;;;;;;;13.05;7.68;;;9.30;99.90;;;;;;5045333;28;20037;-67
2023/09/27 06:36:11;;;;;;;14.35;8.15;;;9.50;99.90;;;;;;5036908;28;21647;-67
2023/09/27 06:38:37;;;;;;;14.88;8.45;;;9.60;99.90;;;;;;5047250;28;20540;-67
2023/09/27 06:41:03;;;;;;;15.52;8.35;;;9.70;99.90;;;;;;5047942;28;20039;-67
2023/09/27 06:43:31;;;;;;;17.17;8.27;;;9.90;99.90;;;;;;5048174;28;20029;-67
2023/09/27 06:45:58;;;;;;;16.27;8.63;;;10.00;99.90;;;;;;5045854;28;20033;-67
2023/09/27 06:48:25;;;;;;;15.23;8.70;;;10.10;99.90;;;;;;5043463;28;20072;-67
2023/09/27 06:50:50;;;;;;;18.58;8.50;;;10.20;99.90;;;;;;5046760;28;20037;-67
2023/09/27 06:53:17;;;;;;;14.95;8.38;;;10.20;99.90;;;;;;5028478;28;20038;-67
2023/09/27 06:55:44;;;;;;;16.83;8.35;;;10.30;99.90;;;;;;5027769;28;20057;-67
2023/09/27 06:58:11;;;;;;;16.00;8.35;;;10.40;99.90;;;;;;5043187;28;20387;-68
2023/09/27 07:00:42;;;;;;;15.30;8.80;;;10.50;99.90;;;;;;5047588;28;20024;-67
2023/09/27 07:03:09;;;;;;;15.32;8.32;;;10.60;99.90;;;;;;5046044;28;20033;-68
2023/09/27 07:05:35;;;;;;;14.35;8.77;;;10.80;99.90;;;;;;5047588;28;20132;-68
2023/09/27 07:08:01;;;;;;;16.27;8.90;;;10.80;99.90;;;;;;5047186;28;20025;-68
2023/09/27 07:10:26;;;;;;;14.20;9.10;;;10.90;99.90;;;;;;5048248;28;20367;-68
2023/09/27 07:12:52;;;;;;;16.48;8.88;;;11.00;99.90;;;;;;5047537;28;20032;-68
2023/09/27 07:15:18;;;;;;;16.80;9.02;;;11.10;99.90;;;;;;5047436;28;20083;-68
2023/09/27 07:17:44;;;;;;;19.65;9.40;;;11.20;99.90;;;;;;5047388;28;20025;-67
2023/09/27 07:20:20;;;;;;;17.83;9.43;;;11.20;99.90;;;;;;5048789;28;20031;-68
2023/09/27 07:22:46;;;;;;;16.52;9.10;;;11.30;99.90;;;;;;5051766;28;20086;-68
2023/09/27 07:25:16;;;;;;;15.85;8.82;;;11.50;99.90;;;;;;5051753;28;20401;-68
2023/09/27 07:27:43;;;;;;;15.90;8.93;;;11.60;99.90;;;;;;5051539;28;20025;-68
2023/09/27 07:30:17;;;;;;;14.25;8.63;;;11.80;99.90;;;;;;5044124;28;20032;-68
2023/09/27 07:32:46;;;;;;;13.52;7.97;;;11.90;99.90;;;;;;5046919;28;20091;-68
2023/09/27 07:35:16;;;;;;;16.77;9.10;;;12.10;99.90;;;;;;5032184;28;20061;-68
2023/09/27 07:37:42;;;;;;;16.58;9.15;;;12.20;99.90;;;;;;5036833;28;20110;-68
2023/09/27 07:40:10;;;;;;;16.70;8.85;;;12.40;99.90;;;;;;5051693;28;20029;-68
2023/09/27 07:42:36;;;;;;;14.20;8.35;;;12.50;99.90;;;;;;5051657;28;20122;-68
2023/09/27 07:45:04;;;;;;;16.27;8.65;;;12.60;99.90;;;;;;5052168;28;20037;-68
2023/09/27 07:47:31;;;;;;;13.93;8.70;;;12.80;99.90;;;;;;5052087;28;20033;-68
2023/09/27 07:49:56;;;;;;;17.58;9.00;;;12.90;99.90;;;;;;5051001;28;20029;-68
2023/09/27 07:52:22;;;;;;;13.50;8.65;;;13.10;99.90;;;;;;5051788;28;20037;-68
2023/09/27 07:54:47;;;;;;;14.95;8.35;;;13.30;99.90;;;;;;5051062;28;20123;-68
2023/09/27 07:57:14;;;;;;;15.25;8.80;;;13.50;99.90;;;;;;5052316;28;20029;-68
2023/09/27 07:59:40;;;;;;;14.48;8.35;;;13.70;99.90;;;;;;5050603;28;20369;-68
2023/09/27 08:02:05;;;;;;;13.93;8.10;;;13.80;99.90;;;;;;5051578;28;20029;-69
2023/09/27 08:04:31;;;;;;;15.40;7.45;;;14.00;99.90;;;;;;5051826;28;20021;-68
2023/09/27 08:06:57;;;;;;;11.30;7.75;;;14.10;99.90;;;;;;5050712;28;20938;-69
2023/09/27 08:09:24;;;;;;;15.07;8.10;;;14.20;99.90;;;;;;5049968;28;20037;-68
2023/09/27 08:11:50;;;;;;;13.45;7.60;;;14.40;99.90;;;;;;5050698;28;20021;-69
2023/09/27 08:14:18;;;;;;;13.93;7.82;;;14.60;99.90;;;;;;5051383;28;20033;-68
2023/09/27 08:16:44;;;;;;;15.05;8.43;;;14.80;99.90;;;;;;5050751;28;20090;-69
2023/09/27 08:19:09;;;;;;;15.50;8.27;;;15.10;99.90;;;;;;5051503;28;20032;-68
2023/09/27 08:21:35;;;;;;;13.57;8.18;;;15.30;99.90;;;;;;5050563;28;20025;-68
2023/09/27 08:24:00;;;;;;;15.70;7.75;;;15.40;99.90;;;;;;5050949;28;20029;-68
2023/09/27 08:26:27;;;;;;;13.55;8.43;;;15.60;99.90;;;;;;5051537;28;20035;-69
2023/09/27 08:28:52;;;;;;;14.57;8.27;;;15.70;99.90;;;;;;5050478;28;20127;-69
2023/09/27 08:31:18;;;;;;;11.68;7.60;;;15.90;99.90;;;;;;5050600;28;20540;-69
2023/09/27 08:33:44;;;;;;;12.40;7.30;;;16.00;99.90;;;;;;5049543;28;20044;-69
2023/09/27 08:36:11;;;;;;;13.68;8.05;;;16.20;99.90;;;;;;5050772;28;20029;-68
2023/09/27 08:38:36;;;;;;;13.85;8.43;;;16.40;99.90;;;;;;5050711;28;20108;-69
2023/09/27 08:41:05;;;;;;;11.25;8.05;;;16.60;99.90;;;;;;5049927;28;20116;-69
2023/09/27 08:43:32;;;;;;;17.48;8.57;;;16.70;99.90;;;;;;5050955;28;20568;-69
2023/09/27 08:45:59;;;;;;;14.85;8.05;;;16.80;99.90;;;;;;5050145;28;20021;-69
2023/09/27 08:48:28;;;;;;;10.18;6.40;;;17.00;99.90;;;;;;5050859;28;20075;-69
2023/09/27 08:50:55;;;;;;;12.55;6.60;;;17.20;99.90;;;;;;5049519;28;20504;-69
2023/09/27 08:53:20;;;;;;;11.38;6.57;;;17.40;99.90;;;;;;5050640;28;20496;-69
2023/09/27 08:55:50;;;;;;;11.07;6.32;;;17.50;99.90;;;;;;5049754;28;20035;-69
2023/09/27 08:58:16;;;;;;;9.20;5.65;;;17.70;99.90;;;;;;5050022;28;20029;-68
2023/09/27 09:00:42;;;;;;;13.23;6.90;;;17.90;99.90;;;;;;5049514;28;20035;-69
2023/09/27 09:03:10;;;;;;;11.35;6.88;;;18.00;99.90;;;;;;5050499;28;20068;-69
2023/09/27 09:05:37;;;;;;;11.63;7.15;;;18.10;99.90;;;;;;5049570;28;20475;-69
2023/09/27 09:08:06;;;;;;;13.63;6.68;;;18.40;99.90;;;;;;5049957;28;20063;-69
2023/09/27 09:10:33;;;;;;;11.07;5.68;;;18.50;99.90;;;;;;5049565;28;20047;-69
2023/09/27 09:13:00;;;;;;;12.73;6.45;;;18.70;99.90;;;;;;5049346;28;20029;-69
2023/09/27 09:15:40;;;;;;;10.90;6.57;;;18.90;99.90;;;;;;5050150;28;20029;-69
2023/09/27 09:18:25;;;;;;;13.43;6.70;;;19.00;99.90;;;;;;5049783;28;20358;-69
2023/09/27 09:20:57;;;;;;;10.90;7.20;;;19.20;99.90;;;;;;5049215;28;20094;-69
2023/09/27 09:23:34;;;;;;;10.50;6.95;;;19.30;99.90;;;;;;5050040;28;20032;-69
2023/09/27 09:26:01;;;;;;;15.05;8.70;;;19.40;99.90;;;;;;5041494;28;20096;-69
2023/09/27 09:28:27;;;;;;;13.35;7.90;;;19.50;99.90;;;;;;5049670;28;20385;-69
2023/09/27 09:30:55;;;;;;;11.27;7.35;;;19.60;99.90;;;;;;5049264;28;20041;-69
2023/09/27 09:33:24;;;;;;;14.63;7.07;;;19.80;99.90;;;;;;5050027;28;20457;-69
2023/09/27 09:35:51;;;;;;;14.13;7.85;;;19.80;99.90;;;;;;5048747;28;20029;-70
2023/09/27 09:38:29;;;;;;;12.02;7.70;;;20.00;99.90;;;;;;5049177;28;20451;-69
2023/09/27 09:41:00;;;;;;;13.32;7.43;;;20.10;99.90;;;;;;5048706;28;20450;-69
2023/09/27 09:43:33;;;;;;;12.80;7.68;;;20.20;99.90;;;;;;5049563;28;20032;-69
2023/09/27 09:46:00;;;;;;;10.23;7.25;;;20.30;99.90;;;;;;5047904;28;20021;-69
2023/09/27 09:48:27;;;;;;;10.23;6.78;;;20.50;99.90;;;;;;5049183;28;20032;-69
2023/09/27 09:51:00;;;;;;;17.42;7.32;;;20.60;99.90;;;;;;5048865;28;20424;-69
2023/09/27 09:53:28;;;;;;;11.13;6.50;;;20.70;99.90;;;;;;5048722;28;20025;-69
2023/09/27 09:55:59;;;;;;;14.40;7.57;;;20.80;99.90;;;;;;5047392;28;20032;-69
2023/09/27 09:58:51;;;;;;;9.88;6.32;;;21.00;99.90;;;;;;5047972;28;20032;-70
2023/09/27 10:01:26;;;;;;;11.70;6.60;;;21.10;99.90;;;;;;5047359;28;20587;-69
2023/09/27 10:03:52;;;;;;;11.40;6.80;;;21.30;99.90;;;;;;5047440;28;20112;-69
2023/09/27 10:06:22;;;;;;;12.77;5.88;;;21.40;99.90;;;;;;5049251;28;20044;-69
2023/09/27 10:08:49;;;;;;;9.68;6.60;;;21.50;99.90;;;;;;5048134;28;20036;-70
2023/09/27 10:11:15;;;;;;;13.77;6.13;;;21.70;99.90;;;;;;5048833;28;20112;-70
2023/09/27 10:13:42;;;;;;;14.40;5.70;;;21.90;99.90;;;;;;5048821;28;20033;-70
2023/09/27 10:16:11;;;;;;;13.60;5.55;;;21.80;99.90;;;;;;5047972;28;20036;-70
2023/09/27 10:18:38;;;;;;;9.13;5.72;;;21.90;99.90;;;;;;5049167;28;20032;-70
2023/09/27 10:21:09;;;;;;;9.57;5.43;;;22.10;99.90;;;;;;5048236;28;20028;-70
2023/09/27 10:23:46;;;;;;;7.07;4.47;;;22.20;99.90;;;;;;5049101;28;20035;-69
2023/09/27 10:26:31;;;;;;;6.43;4.53;;;22.40;99.90;;;;;;5048196;28;20777;-69
2023/09/27 10:31:31;;;;;;;6.05;4.03;;;22.80;99.90;;;;;;5048572;28;20044;-69
2023/09/27 10:33:57;;;;;;;7.47;3.58;;;22.90;99.90;;;;;;5048184;28;20064;-69
2023/09/27 10:36:22;;;;;;;9.02;3.63;;;22.90;99.90;;;;;;5048615;28;20086;-69
2023/09/27 10:38:50;;;;;;;4.88;3.50;;;23.00;99.90;;;;;;5047531;28;20094;-69
2023/09/27 10:41:31;;;;;;;11.85;4.15;;;23.10;99.90;;;;;;5047940;28;20025;-69
2023/09/27 10:43:57;;;;;;;9.50;3.45;;;23.20;99.90;;;;;;5046927;28;20087;-69
2023/09/27 10:46:24;;;;;;;8.88;3.65;;;23.40;99.90;;;;;;5048778;28;20033;-69
2023/09/27 10:48:54;;;;;;;10.20;3.70;;;23.60;99.90;;;;;;5046393;28;20472;-69
2023/09/27 10:51:21;;;;;;;5.07;3.13;;;23.80;99.90;;;;;;5047092;28;20543;-69
2023/09/27 10:53:48;;;;;;;13.80;3.00;;;23.90;99.90;;;;;;5046820;28;20050;-69
2023/09/27 10:56:15;;;;;;;9.60;3.30;;;24.00;99.90;;;;;;5046676;28;20485;-69
2023/09/27 10:58:45;;;;;;;4.70;2.40;;;24.00;99.90;;;;;;5048205;28;20082;-69
2023/09/27 11:01:11;;;;;;;7.47;2.60;;;24.10;99.90;;;;;;5045996;28;20036;-69
2023/09/27 11:03:38;;;;;;;5.18;2.45;;;24.20;99.90;;;;;;5048408;28;20142;-69
2023/09/27 11:06:14;;;;;;;4.80;2.58;;;24.30;99.90;;;;;;5046503;28;20875;-69
2023/09/27 11:08:40;;;;;;;5.80;2.30;;;24.50;99.90;;;;;;5043621;28;20495;-68
2023/09/27 11:11:11;;;;;;;4.85;2.65;;;24.50;98.80;;;;;;5041248;28;20696;-69
2023/09/27 11:13:46;;;;;;;10.10;3.00;;;24.80;99.90;;;;;;5047251;28;20036;-69
2023/09/27 11:16:14;;;;;;;6.80;2.70;;;25.00;99.60;;;;;;5040735;28;20104;-69
2023/09/27 11:18:44;;;;;;;7.18;2.80;;;24.90;99.90;;;;;;5046269;28;20032;-69
2023/09/27 11:21:11;;;;;;;5.80;2.50;;;25.00;99.10;;;;;;5039654;28;20041;-69
2023/09/27 11:23:52;;;;;;;8.45;2.88;;;25.00;99.60;;;;;;5043660;28;20704;-69
2023/09/27 11:26:19;;;;;;;4.90;2.10;;;25.00;97.80;;;;;;5028697;28;20028;-69
2023/09/27 11:29:06;;;;;;;3.25;2.70;;;25.20;98.90;;;;;;5045422;28;20036;-69
2023/09/27 11:31:36;;;;;;;4.85;2.20;;;25.20;97.10;;;;;;5044906;28;20095;-69
2023/09/27 11:34:19;;;;;;;;;;;25.10;96.50;;;;;;5047633;28;20674;-69
2023/09/27 11:36:51;;;;;;;6.88;2.40;;;25.10;96.10;;;;;;5047243;28;19995;-69
2023/09/27 11:39:18;;;;;;;5.20;2.38;;;25.00;96.90;;;;;;5048093;28;20033;-69
2023/09/27 11:41:45;;;;;;;7.32;2.63;;;25.20;98.40;;;;;;5047857;28;20088;-69
2023/09/27 11:44:23;;;;;;;3.72;2.45;;;25.20;96.90;;;;;;5046266;28;20056;-69
2023/09/27 11:46:49;;;;;;;6.65;2.45;;;25.20;96.20;;;;;;5043828;28;20037;-68
2023/09/27 11:49:16;;;;;;;5.28;2.28;;;25.30;96.30;;;;;;5046083;28;20021;-68
2023/09/27 11:51:42;;;;;;;6.32;2.60;;;25.60;95.20;;;;;;5047783;28;20025;-69
2023/09/27 11:54:08;;;;;;;4.00;2.63;;;25.80;95.60;;;;;;5046689;28;20035;-69
2023/09/27 11:56:38;;;;;;;4.00;2.65;;;26.00;95.10;;;;;;5044574;28;20428;-69
2023/09/27 11:59:04;;;;;;;5.57;2.53;;;26.10;94.50;;;;;;5047243;28;20052;-69
2023/09/27 12:01:30;;;;;;;7.22;3.03;;;26.20;94.20;;;;;;5047743;28;20060;-69
2023/09/27 12:03:56;;;;;;;2.63;2.05;;;26.40;95.30;;;;;;5046419;28;20040;-69
2023/09/27 12:06:21;;;;;;;3.05;2.30;;;26.40;94.50;;;;;;5044809;28;20682;-69
2023/09/27 12:08:47;;;;;;;5.22;2.33;;;26.40;93.50;;;;;;5048676;28;20531;-69
2023/09/27 12:11:13;;;;;;;2.97;2.55;;;26.10;92.90;;;;;;5047788;28;20044;-69
2023/09/27 12:13:40;;;;;;;3.83;2.70;;;26.20;93.70;;;;;;5049027;28;20384;-69
2023/09/27 12:16:05;;;;;;;3.35;2.40;;;26.30;92.00;;;;;;5049092;28;20385;-69
2023/09/27 12:18:31;;;;;;;3.90;2.47;;;26.40;93.20;;;;;;5050982;28;20033;-69
2023/09/27 12:20:57;;;;;;;2.70;2.30;;;26.30;93.40;;;;;;5050106;28;20072;-69
2023/09/27 12:23:22;;;;;;;3.83;2.70;;;26.40;93.60;;;;;;5049839;28;20072;-69
2023/09/27 12:25:48;;;;;;;4.50;2.60;;;26.60;93.10;;;;;;5051397;28;20406;-69
2023/09/27 12:28:17;;;;;;;9.52;2.70;;;26.60;93.40;;;;;;5050776;28;20029;-69
2023/09/27 12:30:43;;;;;;;9.45;2.83;;;26.90;92.90;;;;;;5051302;28;20128;-69
2023/09/27 12:33:09;;;;;;;8.15;3.08;;;26.80;92.80;;;;;;5046555;28;20673;-70
2023/09/27 12:35:34;;;;;;;9.23;2.70;;;26.80;93.20;;;;;;5043758;28;20017;-69
2023/09/27 12:38:06;;;;;;;7.68;2.60;;;26.70;93.20;;;;;;5046869;28;20120;-69
2023/09/27 12:40:35;;;;;;;4.45;2.70;;;26.70;92.90;;;;;;5047324;28;20112;-68
2023/09/27 12:43:02;;;;;;;4.97;2.60;;;26.70;92.80;;;;;;5050104;28;20060;-69
2023/09/27 12:45:28;;;;;;;4.13;2.25;;;26.60;92.00;;;;;;5048494;28;20107;-69
2023/09/27 12:47:54;;;;;;;11.50;2.72;;;26.60;91.80;;;;;;5040750;28;20491;-69